createdAt,value
2019-04-11T00:00:03.621Z,18.45
2019-04-11T00:01:03.919Z,17.86
2019-04-11T00:02:02.918Z,17.16
2019-04-11T00:03:03.122Z,17.12
2019-04-11T00:04:02.646Z,16.48
2019-04-11T00:05:02.902Z,17.18
2019-04-11T00:06:03.454Z,18.08
2019-04-11T00:07:03.822Z,17.04
2019-04-11T00:08:03.876Z,16.44
2019-04-11T00:09:03.399Z,16.1
2019-04-11T00:10:02.722Z,16.49
2019-04-11T00:11:03.860Z,16.49
2019-04-11T00:12:03.558Z,17.29
2019-04-11T00:13:21.448Z,16.46
2019-04-11T00:14:03.309Z,16.46
2019-04-11T00:15:04.456Z,15.07
2019-04-11T00:16:03.360Z,14.82
2019-04-11T00:17:03.830Z,15.05
2019-04-11T00:18:03.289Z,14.35
2019-04-11T00:19:03.234Z,14.51
2019-04-11T00:20:04.325Z,13.81
2019-04-11T00:21:02.967Z,13.82
2019-04-11T00:22:03.581Z,13.63
2019-04-11T00:23:02.896Z,13.9
2019-04-11T00:24:03.042Z,14.12
2019-04-11T00:25:03.247Z,13.94
2019-04-11T00:26:02.682Z,13.94
2019-04-11T00:27:02.646Z,13.84
2019-04-11T00:28:03.645Z,12.83
2019-04-11T00:29:04.030Z,13.36
2019-04-11T00:30:04.057Z,13.8
2019-04-11T00:31:02.718Z,13.86
2019-04-11T00:32:09.116Z,13
2019-04-11T00:33:03.509Z,12.7
2019-04-11T00:34:03.735Z,12.89
2019-04-11T00:35:03.772Z,13.61
2019-04-11T00:36:04.317Z,13.89
2019-04-11T00:37:03.590Z,13.39
2019-04-11T00:38:03.168Z,13.88
2019-04-11T00:39:03.575Z,13.46
2019-04-11T00:40:04.026Z,12.73
2019-04-11T00:41:03.839Z,12.84
2019-04-11T00:42:03.847Z,12.86
2019-04-11T00:43:03.265Z,13.18
2019-04-11T00:44:03.013Z,13.81
2019-04-11T00:45:03.450Z,12.59
2019-04-11T00:46:03.078Z,14.42
2019-04-11T00:47:02.862Z,13.98
2019-04-11T00:48:03.968Z,13.52
2019-04-11T00:49:03.228Z,14.47
2019-04-11T00:50:05.331Z,12.66
2019-04-11T00:51:03.626Z,12.75
2019-04-11T00:52:04.667Z,13.63
2019-04-11T00:53:03.678Z,13.05
2019-04-11T00:54:04.825Z,13.48
2019-04-11T00:55:03.616Z,13.15
2019-04-11T00:56:04.176Z,13
2019-04-11T00:57:02.898Z,13.16
2019-04-11T00:58:03.548Z,13.35
2019-04-11T00:59:03.036Z,13.72
2019-04-11T01:00:03.448Z,13.72
2019-04-11T01:01:03.821Z,12.38
2019-04-11T01:02:03.023Z,13.04
2019-04-11T01:03:05.300Z,12.68
2019-04-11T01:04:03.477Z,13.55
2019-04-11T01:05:03.642Z,13.55
2019-04-11T01:06:03.770Z,12.84
2019-04-11T01:07:04.818Z,13.05
2019-04-11T01:08:03.192Z,12.25
2019-04-11T01:09:04.180Z,12.74
2019-04-11T01:10:02.775Z,12.48
2019-04-11T01:11:03.665Z,13.94
2019-04-11T01:12:02.744Z,12.95
2019-04-11T01:13:02.965Z,13.43
2019-04-11T01:14:03.692Z,11.61
2019-04-11T01:15:03.272Z,14.14
2019-04-11T01:16:03.136Z,13.49
2019-04-11T01:17:03.299Z,13.55
2019-04-11T01:18:03.735Z,13.04
2019-04-11T01:19:02.819Z,12.94
2019-04-11T01:20:03.096Z,13.04
2019-04-11T01:21:04.101Z,12.04
2019-04-11T01:22:02.786Z,13.26
2019-04-11T01:23:02.928Z,12.77
2019-04-11T01:24:03.880Z,12.51
2019-04-11T01:25:04.240Z,14.57
2019-04-11T01:26:03.326Z,13.06
2019-04-11T01:27:03.515Z,13.36
2019-04-11T01:28:04.449Z,13.82
2019-04-11T01:29:03.314Z,12.65
2019-04-11T01:30:04.111Z,13.09
2019-04-11T01:31:03.336Z,12.06
2019-04-11T01:32:04.362Z,13.01
2019-04-11T01:33:04.621Z,13.48
2019-04-11T01:34:02.989Z,13.46
2019-04-11T01:35:03.230Z,12.71
2019-04-11T01:36:03.011Z,12.41
2019-04-11T01:37:03.857Z,12.74
2019-04-11T01:38:04.111Z,13.28
2019-04-11T01:39:03.148Z,12.57
2019-04-11T01:40:02.850Z,13.42
2019-04-11T01:41:03.126Z,13.52
2019-04-11T01:42:02.862Z,13.27
2019-04-11T01:43:03.998Z,12.58
2019-04-11T01:44:07.144Z,14.63
2019-04-11T01:45:03.320Z,12.56
2019-04-11T01:46:02.953Z,12.39
2019-04-11T01:47:03.110Z,11.34
2019-04-11T01:48:03.748Z,11.34
2019-04-11T01:49:03.989Z,12.56
2019-04-11T01:50:03.209Z,12.56
2019-04-11T01:51:03.204Z,12.84
2019-04-11T01:52:05.086Z,13.75
2019-04-11T01:53:03.164Z,12.83
2019-04-11T01:54:01.762Z,14.43
2019-04-11T01:55:04.040Z,13.1
2019-04-11T01:56:03.186Z,13.94
2019-04-11T01:57:03.558Z,12.95
2019-04-11T01:58:02.710Z,13.02
2019-04-11T01:59:02.919Z,13.84
2019-04-11T02:00:03.951Z,13.02
2019-04-11T02:01:02.639Z,13.74
2019-04-11T02:02:03.516Z,13.45
2019-04-11T02:03:03.442Z,13.94
2019-04-11T02:04:03.742Z,13.16
2019-04-11T02:05:04.963Z,12.68
2019-04-11T02:06:03.361Z,14.45
2019-04-11T02:07:04.659Z,14.45
2019-04-11T02:08:03.408Z,13.44
2019-04-11T02:09:03.986Z,13.54
2019-04-11T02:10:04.387Z,13.72
2019-04-11T02:11:03.457Z,12.84
2019-04-11T02:12:03.759Z,14.08
2019-04-11T02:13:03.695Z,14.29
2019-04-11T02:14:16.089Z,12.99
2019-04-11T02:15:04.073Z,13.51
2019-04-11T02:16:03.318Z,13.59
2019-04-11T02:17:03.234Z,12.64
2019-04-11T02:18:03.448Z,13.84
2019-04-11T02:19:03.749Z,13.96
2019-04-11T02:20:02.916Z,13.33
2019-04-11T02:21:03.290Z,13.97
2019-04-11T02:22:04.018Z,13.37
2019-04-11T02:23:03.009Z,14.18
2019-04-11T02:24:03.782Z,13.49
2019-04-11T02:25:03.935Z,13.93
2019-04-11T02:26:03.131Z,13.44
2019-04-11T02:27:03.125Z,13.12
2019-04-11T02:28:02.829Z,13.18
2019-04-11T02:29:03.600Z,12.48
2019-04-11T02:30:04.675Z,14.35
2019-04-11T02:31:07.643Z,13.4
2019-04-11T02:32:06.003Z,13.46
2019-04-11T02:33:05.196Z,12.05
2019-04-11T02:34:06.355Z,13.08
2019-04-11T02:35:07.653Z,13.42
2019-04-11T02:36:05.129Z,13.42
2019-04-11T02:37:05.584Z,13.69
2019-04-11T02:38:05.018Z,12.42
2019-04-11T02:39:12.780Z,12.42
2019-04-11T02:40:07.464Z,13.28
2019-04-11T02:41:07.707Z,12.92
2019-04-11T02:42:04.146Z,12.92
2019-04-11T02:43:07.175Z,13.48
2019-04-11T02:44:05.793Z,13.23
2019-04-11T02:45:30.480Z,12.53
2019-04-11T02:46:22.840Z,13.53
2019-04-11T02:47:16.162Z,13.64
2019-04-11T02:48:05.833Z,13.98
2019-04-11T02:49:03.437Z,13.58
2019-04-11T02:50:05.659Z,12.71
2019-04-11T02:51:07.438Z,13.65
2019-04-11T02:52:03.462Z,13.53
2019-04-11T02:53:05.142Z,14.94
2019-04-11T02:54:06.627Z,12.98
2019-04-11T02:55:05.674Z,14.62
2019-04-11T02:56:03.167Z,12.98
2019-04-11T02:57:03.254Z,13.58
2019-04-11T02:58:06.274Z,13.37
2019-04-11T02:59:05.490Z,14.01
2019-04-11T03:00:06.241Z,13.63
2019-04-11T03:01:07.845Z,13.68
2019-04-11T03:02:06.512Z,13.97
2019-04-11T03:03:05.766Z,13.5
2019-04-11T03:04:06.644Z,14.32
2019-04-11T03:05:07.006Z,13.81
2019-04-11T03:06:04.579Z,14.62
2019-04-11T03:07:05.428Z,13.79
2019-04-11T03:08:11.946Z,13.69
2019-04-11T03:09:04.726Z,13.84
2019-04-11T03:10:06.749Z,14.26
2019-04-11T03:11:06.033Z,13.87
2019-04-11T03:12:03.112Z,13.69
2019-04-11T03:13:05.048Z,13.12
2019-04-11T03:14:04.209Z,12.86
2019-04-11T03:15:37.160Z,13.41
2019-04-11T03:16:32.530Z,14.58
2019-04-11T03:17:19.399Z,14.44
2019-04-11T03:18:09.844Z,14.88
2019-04-11T03:19:33.659Z,13.16
2019-04-11T03:20:26.263Z,13.72
2019-04-11T03:21:14.348Z,14.26
2019-04-11T03:22:03.507Z,15.18
2019-04-11T03:23:09.723Z,14.97
2019-04-11T03:24:06.744Z,15.44
2019-04-11T03:25:05.384Z,14.55
2019-04-11T03:26:05.232Z,14.75
2019-04-11T03:27:07.116Z,14.75
2019-04-11T03:28:09.458Z,13.66
2019-04-11T03:29:06.175Z,13.66
2019-04-11T03:30:04.180Z,13.66
2019-04-11T03:32:16.537Z,14.67
2019-04-11T03:34:11.738Z,14.05
2019-04-11T03:35:08.843Z,13.93
2019-04-11T03:36:59.734Z,13.85
2019-04-11T03:37:53.403Z,14
2019-04-11T03:39:43.336Z,14.48
2019-04-11T03:40:41.075Z,14.68
2019-04-11T03:41:37.174Z,14.74
2019-04-11T03:42:30.471Z,13.8
2019-04-11T03:43:29.600Z,13.84
2019-04-11T03:44:21.088Z,13.56
2019-04-11T03:45:47.716Z,13.95
2019-04-11T03:46:37.231Z,14.49
2019-04-11T03:47:27.589Z,14.61
2019-04-11T03:48:21.576Z,14.19
2019-04-11T03:49:28.832Z,13.58
2019-04-11T03:50:15.271Z,14.57
2019-04-11T03:51:04.832Z,13.84
2019-04-11T03:52:05.709Z,13.48
2019-04-11T03:53:06.996Z,13.74
2019-04-11T03:54:02.990Z,13.99
2019-04-11T03:55:08.279Z,13.89
2019-04-11T03:56:04.671Z,13.84
2019-04-11T03:57:05.597Z,13.27
2019-04-11T03:58:05.636Z,13.26
2019-04-11T03:59:06.066Z,14.69
2019-04-11T04:00:06.422Z,13.82
2019-04-11T04:01:10.533Z,13.96
2019-04-11T04:02:05.689Z,14.18
2019-04-11T04:03:06.256Z,13.44
2019-04-11T04:04:03.524Z,13.38
2019-04-11T04:05:06.169Z,14.76
2019-04-11T04:06:06.342Z,14.21
2019-04-11T04:07:06.426Z,14.12
2019-04-11T04:08:06.059Z,13.76
2019-04-11T04:09:03.615Z,12.82
2019-04-11T04:10:06.998Z,13.76
2019-04-11T04:11:04.486Z,14.34
2019-04-11T04:12:04.613Z,13.51
2019-04-11T04:13:07.721Z,13.57
2019-04-11T04:14:04.494Z,13.92
2019-04-11T04:15:07.030Z,13.56
2019-04-11T04:16:21.571Z,13.56
2019-04-11T04:17:06.426Z,14.62
2019-04-11T04:18:05.422Z,14.62
2019-04-11T04:19:05.313Z,13.55
2019-04-11T04:20:05.227Z,13.54
2019-04-11T04:21:06.524Z,14.49
2019-04-11T04:22:04.671Z,13.38
2019-04-11T04:23:05.810Z,14.14
2019-04-11T04:24:04.316Z,13.76
2019-04-11T04:25:04.522Z,14.23
2019-04-11T04:26:05.175Z,13.53
2019-04-11T04:27:06.996Z,14.28
2019-04-11T04:28:07.062Z,13.82
2019-04-11T04:29:04.633Z,13.17
2019-04-11T04:30:06.045Z,12.95
2019-04-11T04:31:05.201Z,13.69
2019-04-11T04:32:06.023Z,13.45
2019-04-11T04:33:05.098Z,13.69
2019-04-11T04:34:03.967Z,13.31
2019-04-11T04:35:10.807Z,13.29
2019-04-11T04:36:10.156Z,13.84
2019-04-11T04:37:05.784Z,13.95
2019-04-11T04:38:04.691Z,14.35
2019-04-11T04:39:05.704Z,13.67
2019-04-11T04:40:35.315Z,13.99
2019-04-11T04:41:22.021Z,12.49
2019-04-11T04:42:17.936Z,13.11
2019-04-11T04:43:08.005Z,14.05
2019-04-11T04:44:06.063Z,13.04
2019-04-11T04:45:07.359Z,13.57
2019-04-11T04:46:34.318Z,12.97
2019-04-11T04:47:22.025Z,14.02
2019-04-11T04:48:12.212Z,14.26
2019-04-11T04:49:04.936Z,14.97
2019-04-11T04:50:06.350Z,14.09
2019-04-11T04:51:10.891Z,14.58
2019-04-11T04:52:06.004Z,14.19
2019-04-11T04:53:05.320Z,13.81
2019-04-11T04:54:04.082Z,13.71
2019-04-11T04:55:06.176Z,13.49
2019-04-11T04:56:03.443Z,13.65
2019-04-11T04:57:05.106Z,14.46
2019-04-11T04:58:05.026Z,13.99
2019-04-11T04:59:07.073Z,14.82
2019-04-11T05:00:07.172Z,13.38
2019-04-11T05:01:06.924Z,14.92
2019-04-11T05:02:06.533Z,14.98
2019-04-11T05:03:03.259Z,14.29
2019-04-11T05:04:05.286Z,14.64
2019-04-11T05:05:05.979Z,14.58
2019-04-11T05:06:04.346Z,14.16
2019-04-11T05:07:04.907Z,14.16
2019-04-11T05:08:03.154Z,13.4
2019-04-11T05:09:04.446Z,13.53
2019-04-11T05:10:07.092Z,13.53
2019-04-11T05:11:04.729Z,13.28
2019-04-11T05:12:03.633Z,14.57
2019-04-11T05:13:05.256Z,14.57
2019-04-11T05:14:05.104Z,13.03
2019-04-11T05:15:03.891Z,14.59
2019-04-11T05:16:17.441Z,14.45
2019-04-11T05:17:03.628Z,12.88
2019-04-11T05:18:04.304Z,14.66
2019-04-11T05:19:04.587Z,14.79
2019-04-11T05:20:04.701Z,13.48
2019-04-11T05:21:03.431Z,13.95
2019-04-11T05:22:03.406Z,13.69
2019-04-11T05:23:04.440Z,15.14
2019-04-11T05:24:04.146Z,13.49
2019-04-11T05:25:05.495Z,13.68
2019-04-11T05:26:03.581Z,14.16
2019-04-11T05:27:02.601Z,13.45
2019-04-11T05:28:04.040Z,13.35
2019-04-11T05:29:02.959Z,13.76
2019-04-11T05:30:03.465Z,13.67
2019-04-11T05:31:03.231Z,14.99
2019-04-11T05:32:03.211Z,15.21
2019-04-11T05:33:04.083Z,12.55
2019-04-11T05:34:03.587Z,15.19
2019-04-11T05:35:04.513Z,14.34
2019-04-11T05:36:02.836Z,13.37
2019-04-11T05:37:02.441Z,14.95
2019-04-11T05:38:02.933Z,13.9
2019-04-11T05:39:03.056Z,13.61
2019-04-11T05:40:03.232Z,14.36
2019-04-11T05:41:03.931Z,13.25
2019-04-11T05:42:03.311Z,12.82
2019-04-11T05:43:03.979Z,13.66
2019-04-11T05:44:10.904Z,15.25
2019-04-11T05:45:03.402Z,14.85
2019-04-11T05:46:30.889Z,13.36
2019-04-11T05:47:06.876Z,13.65
2019-04-11T05:48:03.365Z,14.42
2019-04-11T05:49:05.072Z,14.87
2019-04-11T05:50:11.190Z,13.74
2019-04-11T05:51:04.642Z,13.74
2019-04-11T05:52:04.061Z,14.3
2019-04-11T05:53:04.511Z,14.85
2019-04-11T05:54:08.876Z,14.85
2019-04-11T05:55:03.326Z,14.42
2019-04-11T05:56:03.815Z,14.42
2019-04-11T05:57:03.383Z,13.72
2019-04-11T05:58:12.621Z,13.92
2019-04-11T05:59:03.379Z,14.07
2019-04-11T06:00:03.605Z,14.89
2019-04-11T06:01:03.559Z,13.58
2019-04-11T06:02:07.796Z,14.36
2019-04-11T06:03:03.969Z,14.71
2019-04-11T06:04:03.013Z,14.58
2019-04-11T06:05:03.176Z,14.02
2019-04-11T06:06:04.822Z,13.7
2019-04-11T06:07:03.396Z,15.37
2019-04-11T06:08:02.814Z,13.88
2019-04-11T06:09:04.093Z,14.06
2019-04-11T06:10:09.398Z,14.12
2019-04-11T06:11:06.231Z,14.09
2019-04-11T06:12:03.399Z,14.19
2019-04-11T06:13:02.789Z,14.86
2019-04-11T06:14:06.095Z,14.61
2019-04-11T06:15:04.041Z,15.36
2019-04-11T06:16:04.478Z,14.75
2019-04-11T06:17:03.037Z,14.85
2019-04-11T06:18:03.304Z,14.11
2019-04-11T06:19:02.518Z,16.15
2019-04-11T06:20:04.163Z,14.94
2019-04-11T06:21:04.077Z,14.45
2019-04-11T06:22:04.696Z,14.86
2019-04-11T06:23:05.044Z,12.52
2019-04-11T06:24:03.661Z,13.49
2019-04-11T06:25:06.076Z,14.04
2019-04-11T06:26:03.202Z,14.31
2019-04-11T06:27:04.144Z,15.2
2019-04-11T06:28:04.186Z,13.73
2019-04-11T06:29:21.227Z,13.95
2019-04-11T06:30:03.534Z,14.34
2019-04-11T06:31:06.020Z,14.55
2019-04-11T06:32:03.635Z,14.92
2019-04-11T06:33:04.688Z,14.11
2019-04-11T06:34:03.168Z,13.64
2019-04-11T06:35:04.060Z,14.45
2019-04-11T06:36:04.343Z,15.08
2019-04-11T06:37:03.675Z,14.71
2019-04-11T06:38:02.885Z,14.4
2019-04-11T06:39:03.063Z,15.44
2019-04-11T06:40:04.253Z,14.51
2019-04-11T06:41:03.035Z,15.29
2019-04-11T06:42:05.579Z,14.09
2019-04-11T06:45:04.159Z,14.71
2019-04-11T06:46:03.403Z,14.59
2019-04-11T06:47:05.360Z,14.89
2019-04-11T06:48:02.844Z,14.89
2019-04-11T06:49:04.567Z,15.56
2019-04-11T06:50:03.750Z,15.85
2019-04-11T06:51:03.970Z,14.04
2019-04-11T06:52:04.408Z,15.43
2019-04-11T06:53:04.555Z,14.69
2019-04-11T06:54:02.919Z,14.89
2019-04-11T06:55:04.643Z,15.25
2019-04-11T06:56:03.679Z,16.02
2019-04-11T06:57:03.537Z,14.55
2019-04-11T06:58:03.172Z,14.62
2019-04-11T06:59:04.022Z,15.88
2019-04-11T07:00:03.086Z,15.49
2019-04-11T07:01:03.613Z,14.44
2019-04-11T07:02:17.805Z,16.26
2019-04-11T07:03:03.630Z,15.19
2019-04-11T07:04:03.148Z,16.6
2019-04-11T07:05:04.659Z,15.92
2019-04-11T07:06:02.985Z,15.94
2019-04-11T07:07:02.865Z,14.61
2019-04-11T07:08:02.876Z,16.21
2019-04-11T07:09:03.408Z,15.59
2019-04-11T07:10:04.231Z,15.88
2019-04-11T07:11:03.586Z,15.82
2019-04-11T07:12:03.614Z,16.87
2019-04-11T07:13:03.583Z,16.07
2019-04-11T07:14:02.656Z,16.59
2019-04-11T07:15:04.602Z,16.59
2019-04-11T07:16:04.795Z,15.68
2019-04-11T07:17:08.818Z,15.68
2019-04-11T07:18:07.542Z,15.03
2019-04-11T07:19:04.603Z,15.49
2019-04-11T07:20:02.760Z,15.49
2019-04-11T07:21:03.175Z,15.51
2019-04-11T07:22:03.299Z,17.31
2019-04-11T07:23:03.834Z,16.69
2019-04-11T07:24:03.387Z,16.82
2019-04-11T07:25:04.040Z,15.92
2019-04-11T07:26:04.584Z,16.55
2019-04-11T07:27:03.209Z,17.68
2019-04-11T07:28:03.780Z,16.24
2019-04-11T07:29:02.568Z,17.41
2019-04-11T07:30:03.333Z,16.06
2019-04-11T07:31:04.578Z,17.03
2019-04-11T07:32:05.016Z,17.91
2019-04-11T07:33:04.017Z,17.92
2019-04-11T07:34:02.940Z,17.14
2019-04-11T07:35:04.973Z,17.09
2019-04-11T07:36:03.932Z,16.5
2019-04-11T07:37:02.903Z,17.17
2019-04-11T07:38:03.239Z,15.9
2019-04-11T07:39:03.334Z,16.11
2019-04-11T07:40:05.451Z,16.25
2019-04-11T07:41:04.282Z,16.18
2019-04-11T07:42:02.808Z,16.19
2019-04-11T07:43:12.899Z,16.9
2019-04-11T07:44:04.370Z,16.85
2019-04-11T07:45:04.305Z,16.39
2019-04-11T07:46:02.869Z,16.62
2019-04-11T07:47:19.067Z,15.71
2019-04-11T07:48:03.314Z,18.72
2019-04-11T07:49:03.903Z,15.53
2019-04-11T07:50:03.348Z,16.95
2019-04-11T07:51:03.272Z,16.81
2019-04-11T07:52:03.065Z,16.22
2019-04-11T07:53:03.233Z,17.99
2019-04-11T07:54:02.773Z,15.49
2019-04-11T07:55:04.700Z,15.89
2019-04-11T07:56:05.078Z,15.89
2019-04-11T07:57:04.295Z,16.58
2019-04-11T07:58:04.404Z,17.32
2019-04-11T07:59:03.150Z,17.32
2019-04-11T08:00:03.927Z,16.87
2019-04-11T08:01:02.268Z,17.1
2019-04-11T08:02:03.797Z,17.1
2019-04-11T08:03:04.235Z,17.37
2019-04-11T08:04:03.883Z,17.65
2019-04-11T08:05:04.529Z,16.76
2019-04-11T08:06:03.317Z,16.84
2019-04-11T08:07:04.506Z,17.35
2019-04-11T08:08:06.795Z,16.66
2019-04-11T08:09:03.268Z,16.94
2019-04-11T08:10:03.300Z,16.65
2019-04-11T08:11:02.768Z,17.75
2019-04-11T08:12:04.610Z,17.78
2019-04-11T08:13:03.837Z,17.94
2019-04-11T08:15:02.937Z,17.11
2019-04-11T08:16:04.459Z,17.11
2019-04-11T08:17:03.910Z,17.11
2019-04-11T08:18:04.128Z,16.09
2019-04-11T08:19:03.737Z,16.67
2019-04-11T08:20:04.713Z,17.39
2019-04-11T08:21:03.905Z,17.12
2019-04-11T08:22:03.501Z,16.34
2019-04-11T08:23:03.691Z,17.99
2019-04-11T08:24:04.505Z,16.97
2019-04-11T08:25:02.976Z,18.26
2019-04-11T08:26:04.086Z,17.92
2019-04-11T08:27:03.391Z,17.92
2019-04-11T08:28:07.900Z,18.1
2019-04-11T08:29:13.481Z,16.72
2019-04-11T08:30:03.389Z,16.72
2019-04-11T08:31:03.607Z,16.88
2019-04-11T08:32:03.118Z,18.65
2019-04-11T08:33:03.007Z,18.65
2019-04-11T08:34:02.885Z,18.58
2019-04-11T08:35:04.083Z,18.22
2019-04-11T08:36:02.823Z,16.92
2019-04-11T08:37:03.442Z,16.92
2019-04-11T08:38:04.509Z,19.23
2019-04-11T08:39:04.873Z,18.26
2019-04-11T08:40:04.029Z,18.26
2019-04-11T08:41:03.198Z,18.36
2019-04-11T08:42:03.327Z,17.68
2019-04-11T08:43:02.808Z,17.73
2019-04-11T08:44:03.722Z,18.01
2019-04-11T08:45:04.161Z,19.15
2019-04-11T08:46:04.731Z,17.98
2019-04-11T08:47:04.484Z,17.88
2019-04-11T08:48:04.582Z,17.63
2019-04-11T08:49:03.782Z,16.76
2019-04-11T08:50:04.009Z,17.75
2019-04-11T08:51:03.387Z,17.56
2019-04-11T08:52:03.851Z,17.61
2019-04-11T08:53:04.627Z,18.25
2019-04-11T08:54:02.952Z,18.51
2019-04-11T08:55:04.287Z,18.99
2019-04-11T08:56:05.566Z,17.47
2019-04-11T08:58:04.499Z,18.86
2019-04-11T08:59:02.959Z,17.34
2019-04-11T09:00:04.273Z,18.59
2019-04-11T09:01:03.505Z,18.31
2019-04-11T09:02:04.725Z,17.78
2019-04-11T09:03:02.546Z,17.07
2019-04-11T09:04:10.492Z,18.44
2019-04-11T09:05:15.084Z,17.6
2019-04-11T09:06:04.411Z,17.43
2019-04-11T09:07:03.655Z,18.44
2019-04-11T09:08:03.472Z,17.88
2019-04-11T09:09:04.944Z,18.38
2019-04-11T09:10:04.226Z,17.95
2019-04-11T09:11:02.869Z,19.59
2019-04-11T09:12:04.542Z,18.53
2019-04-11T09:13:03.191Z,18.41
2019-04-11T09:14:04.003Z,19.31
2019-04-11T09:15:04.510Z,18.7
2019-04-11T09:16:03.566Z,18.38
2019-04-11T09:17:03.923Z,16.71
2019-04-11T09:18:10.461Z,16.71
2019-04-11T09:19:03.705Z,18.49
2019-04-11T09:20:03.632Z,17.64
2019-04-11T09:21:04.352Z,17.64
2019-04-11T09:22:03.276Z,17.95
2019-04-11T09:23:03.867Z,18.07
2019-04-11T09:24:03.018Z,18.38
2019-04-11T09:25:03.516Z,19
2019-04-11T09:26:03.720Z,17.51
2019-04-11T09:27:03.045Z,19.3
2019-04-11T09:28:02.962Z,19.41
2019-04-11T09:29:04.065Z,19.26
2019-04-11T09:30:02.824Z,18.06
2019-04-11T09:31:07.995Z,18.28
2019-04-11T09:32:02.721Z,19.12
2019-04-11T09:33:03.225Z,19.32
2019-04-11T09:34:03.848Z,19.68
2019-04-11T09:35:03.116Z,19.16
2019-04-11T09:36:03.919Z,18.84
2019-04-11T09:37:03.705Z,18.74
2019-04-11T09:38:02.831Z,18.52
2019-04-11T09:39:04.627Z,19.06
2019-04-11T09:40:03.866Z,19.42
2019-04-11T09:41:04.084Z,19.2
2019-04-11T09:42:03.123Z,18.28
2019-04-11T09:43:03.944Z,18.49
2019-04-11T09:44:04.469Z,18.29
2019-04-11T09:45:03.667Z,17.83
2019-04-11T09:46:03.831Z,19.56
2019-04-11T09:47:03.553Z,17.26
2019-04-11T09:48:15.230Z,20.19
2019-04-11T09:49:03.021Z,18.01
2019-04-11T09:50:04.412Z,17.34
2019-04-11T09:51:03.141Z,18.3
2019-04-11T09:52:02.966Z,20.58
2019-04-11T09:53:03.726Z,19.88
2019-04-11T09:54:03.651Z,20.57
2019-04-11T09:55:04.544Z,20.24
2019-04-11T09:56:02.866Z,19.8
2019-04-11T09:57:04.538Z,19
2019-04-11T09:58:03.099Z,19.39
2019-04-11T09:59:02.898Z,18.05
2019-04-11T10:00:03.920Z,19.69
2019-04-11T10:01:03.869Z,18.94
2019-04-11T10:02:02.768Z,19.35
2019-04-11T10:03:03.095Z,18.63
2019-04-11T10:04:03.766Z,19.32
2019-04-11T10:05:03.689Z,19.32
2019-04-11T10:06:03.119Z,19.32
2019-04-11T10:07:03.514Z,19.89
2019-04-11T10:08:03.160Z,20.38
2019-04-11T10:09:03.883Z,19.02
2019-04-11T10:10:04.735Z,20.14
2019-04-11T10:11:03.814Z,20.26
2019-04-11T10:12:02.664Z,20.91
2019-04-11T10:13:02.794Z,19.34
2019-04-11T10:14:02.845Z,20.69
2019-04-11T10:15:03.222Z,19.48
2019-04-11T10:16:04.052Z,19.83
2019-04-11T10:17:03.042Z,20.66
2019-04-11T10:18:03.237Z,19.36
2019-04-11T10:19:03.552Z,20.26
2019-04-11T10:20:04.319Z,20.43
2019-04-11T10:21:03.143Z,21.25
2019-04-11T10:22:02.947Z,22.76
2019-04-11T10:23:04.913Z,20.53
2019-04-11T10:24:02.706Z,21.67
2019-04-11T10:25:03.400Z,22.29
2019-04-11T10:26:03.642Z,21.08
2019-04-11T10:27:02.780Z,21.65
2019-04-11T10:28:03.041Z,21.91
2019-04-11T10:29:04.439Z,22.06
2019-04-11T10:30:03.080Z,23.14
2019-04-11T10:31:04.361Z,21.27
2019-04-11T10:32:03.370Z,21.79
2019-04-11T10:33:04.617Z,22.85
2019-04-11T10:34:04.582Z,22.62
2019-04-11T10:35:03.163Z,23.08
2019-04-11T10:36:03.155Z,21.68
2019-04-11T10:37:03.686Z,21.86
2019-04-11T10:38:02.903Z,21.16
2019-04-11T10:39:03.026Z,22.75
2019-04-11T10:40:04.048Z,21.69
2019-04-11T10:41:04.266Z,24.34
2019-04-11T10:42:04.432Z,23.48
2019-04-11T10:43:04.419Z,23.39
2019-04-11T10:44:03.610Z,23.86
2019-04-11T10:45:04.736Z,23.43
2019-04-11T10:46:03.308Z,23.91
2019-04-11T10:47:08.118Z,24.09
2019-04-11T10:48:03.440Z,24.09
2019-04-11T10:49:03.764Z,23.93
2019-04-11T10:50:03.612Z,24.15
2019-04-11T10:51:04.683Z,24.15
2019-04-11T10:52:02.767Z,23.44
2019-04-11T10:53:03.078Z,22.24
2019-04-11T10:54:06.893Z,22.75
2019-04-11T10:55:03.425Z,22.89
2019-04-11T10:56:02.811Z,25.12
2019-04-11T10:57:03.591Z,23.91
2019-04-11T10:58:04.894Z,24.81
2019-04-11T10:59:03.524Z,23.3
2019-04-11T11:00:03.240Z,24.76
2019-04-11T11:01:04.045Z,24.31
2019-04-11T11:02:04.613Z,24.92
2019-04-11T11:03:04.175Z,23.26
2019-04-11T11:04:03.467Z,25.16
2019-04-11T11:05:03.603Z,23.78
2019-04-11T11:06:03.453Z,23.86
2019-04-11T11:07:04.178Z,23.22
2019-04-11T11:08:03.049Z,25.15
2019-04-11T11:09:04.006Z,24.9
2019-04-11T11:10:03.299Z,23.93
2019-04-11T11:11:03.988Z,24.75
2019-04-11T11:12:03.711Z,24.91
2019-04-11T11:13:03.537Z,26.22
2019-04-11T11:14:02.927Z,24.21
2019-04-11T11:15:03.296Z,23.21
2019-04-11T11:16:06.667Z,24.02
2019-04-11T11:17:03.065Z,23.93
2019-04-11T11:19:01.741Z,25.14
2019-04-11T11:20:22.156Z,24.69
2019-04-11T11:21:05.951Z,25.12
2019-04-11T11:22:05.306Z,23.87
2019-04-11T11:23:10.990Z,23.96
2019-04-11T11:24:08.696Z,24.31
2019-04-11T11:25:03.292Z,26.17
2019-04-11T11:26:02.938Z,26.4
2019-04-11T11:27:05.657Z,22.36
2019-04-11T11:28:03.778Z,23.78
2019-04-11T11:29:10.244Z,24.79
2019-04-11T11:30:06.116Z,24.14
2019-04-11T11:31:03.351Z,24.78
2019-04-11T11:32:03.224Z,25.06
2019-04-11T11:33:03.805Z,25.06
2019-04-11T11:34:03.564Z,25.29
2019-04-11T11:35:03.493Z,24.06
2019-04-11T11:36:10.583Z,24.06
2019-04-11T11:37:02.755Z,23.67
2019-04-11T11:38:04.034Z,25.09
2019-04-11T11:39:02.680Z,25.09
2019-04-11T11:40:12.971Z,24.05
2019-04-11T11:41:03.986Z,24.26
2019-04-11T11:42:04.197Z,25.4
2019-04-11T11:43:03.592Z,23.43
2019-04-11T11:44:03.543Z,23.99
2019-04-11T11:45:05.381Z,24.53
2019-04-11T11:46:03.334Z,24.44
2019-04-11T11:47:05.501Z,25.99
2019-04-11T11:48:02.555Z,26.04
2019-04-11T11:49:03.934Z,25.72
2019-04-11T11:50:07.477Z,24.42
2019-04-11T11:51:03.480Z,24.82
2019-04-11T11:52:03.623Z,25.07
2019-04-11T11:53:11.592Z,25.37
2019-04-11T11:54:03.201Z,24.61
2019-04-11T11:55:04.159Z,25
2019-04-11T11:56:03.388Z,24.02
2019-04-11T11:57:04.665Z,24.74
2019-04-11T11:58:03.520Z,24.61
2019-04-11T11:59:03.807Z,23.59
2019-04-11T12:00:03.449Z,23.1
2019-04-11T12:01:09.446Z,23.93
2019-04-11T12:02:04.523Z,24.62
2019-04-11T12:03:03.716Z,24.72
2019-04-11T12:04:05.015Z,24.87
2019-04-11T12:05:12.507Z,24.78
2019-04-11T12:06:03.370Z,23.91
2019-04-11T12:07:06.812Z,24.72
2019-04-11T12:08:04.364Z,25.4
2019-04-11T12:09:04.511Z,26.22
2019-04-11T12:10:03.219Z,27.05
2019-04-11T12:11:04.063Z,25.32
2019-04-11T12:12:04.387Z,25.22
2019-04-11T12:13:10.924Z,27.25
2019-04-11T12:14:04.148Z,26.51
2019-04-11T12:15:03.569Z,25.98
2019-04-11T12:16:03.827Z,25.92
2019-04-11T12:17:06.695Z,26.18
2019-04-11T12:18:08.093Z,25.69
2019-04-11T12:19:02.878Z,26.2
2019-04-11T12:20:13.235Z,27.07
2019-04-11T12:21:03.405Z,27.07
2019-04-11T12:22:04.355Z,25.72
2019-04-11T12:23:04.384Z,25.43
2019-04-11T12:24:07.837Z,24.83
2019-04-11T12:25:03.280Z,26.16
2019-04-11T12:26:03.576Z,26.16
2019-04-11T12:27:04.556Z,26.86
2019-04-11T12:28:12.015Z,26.86
2019-04-11T12:29:03.123Z,25.55
2019-04-11T12:30:07.770Z,25.52
2019-04-11T12:31:05.360Z,26.16
2019-04-11T12:32:04.117Z,26.03
2019-04-11T12:33:03.514Z,26.26
2019-04-11T12:34:02.970Z,26.53
2019-04-11T12:35:04.163Z,25.74
2019-04-11T12:36:03.605Z,26.32
2019-04-11T12:37:04.377Z,25.96
2019-04-11T12:38:03.535Z,25.99
2019-04-11T12:39:03.239Z,27.25
2019-04-11T12:40:03.010Z,26.89
2019-04-11T12:41:03.402Z,26.94
2019-04-11T12:42:02.938Z,27.81
2019-04-11T12:43:03.142Z,25.27
2019-04-11T12:44:03.025Z,24.62
2019-04-11T12:45:03.352Z,24.62
2019-04-11T12:46:03.051Z,26.24
2019-04-11T12:47:03.096Z,27.75
2019-04-11T12:48:02.874Z,27.4
2019-04-11T12:49:02.932Z,27.54
2019-04-11T12:50:02.988Z,26.79
2019-04-11T12:51:02.838Z,28.24
2019-04-11T12:52:02.968Z,27.82
2019-04-11T12:54:02.522Z,28.24
2019-04-11T12:55:02.921Z,27.02
2019-04-11T12:56:02.872Z,27.94
2019-04-11T12:57:03.714Z,27.27
2019-04-11T12:58:02.911Z,27.01
2019-04-11T12:59:02.901Z,25.75
2019-04-11T13:00:02.818Z,28.36
2019-04-11T13:01:03.691Z,27.88
2019-04-11T13:02:03.511Z,29.69
2019-04-11T13:03:02.922Z,27.79